Time;durP1;ratioP1;P1;durP2;ratioP2;P2;SDS_P1;SDS_P2;PMS_P1;PMS_P2;Temp;Humidity;BMP_temperature;BMP_pressure;BME280_temperature;BME280_humidity;BME280_pressure;Samples;Min_cycle;Max_cycle;Signal;HPM_P1;HPM_P2
2023/07/23 00:00:00;;;;;;;1.75;1.65;;;;;;;;;;5067649;28;20048;-67
2023/07/23 00:02:27;;;;;;;3.20;1.80;;;;;;;;;;5066262;28;20024;-67
2023/07/23 00:04:53;;;;;;;4.35;2.17;;;;;;;;;;5063844;28;20140;-67
2023/07/23 00:07:19;;;;;;;2.70;1.70;;;;;;;;;;5064742;28;20036;-67
2023/07/23 00:09:45;;;;;;;2.28;1.63;;;;;;;;;;5062366;28;20025;-67
2023/07/23 00:12:11;;;;;;;2.05;1.75;;;;;;;;;;5052023;28;20064;-67
2023/07/23 00:14:37;;;;;;;1.90;1.75;;;;;;;;;;5049418;28;20028;-65
2023/07/23 00:17:03;;;;;;;2.90;2.13;;;;;;;;;;5052267;28;20429;-65
2023/07/23 00:19:29;;;;;;;3.05;1.90;;;;;;;;;;5062382;28;20107;-66
2023/07/23 00:21:55;;;;;;;2.78;2.15;;;;;;;;;;5063905;28;20025;-65
2023/07/23 00:24:21;;;;;;;4.13;2.00;;;;;;;;;;5068735;28;20051;-66
2023/07/23 00:26:48;;;;;;;3.15;1.70;;;;;;;;;;5064475;28;20054;-66
2023/07/23 00:29:14;;;;;;;3.42;1.92;;;;;;;;;;5072886;28;20033;-66
2023/07/23 00:31:40;;;;;;;4.57;1.98;;;;;;;;;;5062382;28;20035;-67
2023/07/23 00:34:07;;;;;;;2.13;1.75;;;;;;;;;;5060842;28;20049;-67
2023/07/23 00:36:33;;;;;;;3.40;2.00;;;;;;;;;;5062353;28;20585;-66
2023/07/23 00:38:59;;;;;;;8.05;2.70;;;;;;;;;;5070934;28;20388;-66
2023/07/23 00:41:25;;;;;;;3.05;1.95;;;;;;;;;;5066049;28;20078;-66
2023/07/23 00:43:51;;;;;;;2.10;1.73;;;;;;;;;;5068467;28;20032;-66
2023/07/23 00:46:17;;;;;;;3.33;2.00;;;;;;;;;;5065166;28;20515;-66
2023/07/23 00:48:44;;;;;;;4.70;2.03;;;;;;;;;;5064921;28;20048;-66
2023/07/23 00:51:10;;;;;;;2.35;1.95;;;;;;;;;;5067617;28;20064;-66
2023/07/23 00:53:36;;;;;;;3.28;2.08;;;;;;;;;;5068231;28;20020;-66
2023/07/23 00:56:02;;;;;;;3.20;2.00;;;;;;;;;;5071171;28;20021;-66
2023/07/23 00:58:28;;;;;;;4.05;2.00;;;;;;;;;;5067354;28;20039;-66
2023/07/23 01:00:54;;;;;;;1.77;1.60;;;;;;;;;;5063699;28;20028;-65
2023/07/23 01:03:20;;;;;;;3.28;1.75;;;;;;;;;;5064881;28;20029;-64
2023/07/23 01:05:48;;;;;;;1.75;1.60;;;;;;;;;;5073290;28;20082;-64
2023/07/23 01:08:14;;;;;;;4.85;1.88;;;;;;;;;;5059881;28;20028;-65
2023/07/23 01:10:40;;;;;;;2.00;1.80;;;;;;;;;;5065006;28;20484;-66
2023/07/23 01:13:07;;;;;;;5.80;2.83;;;;;;;;;;5057672;28;20115;-66
2023/07/23 01:15:33;;;;;;;3.63;1.77;;;;;;;;;;5067417;28;20066;-66
2023/07/23 01:18:00;;;;;;;5.43;1.95;;;;;;;;;;5059563;28;20028;-66
2023/07/23 01:20:26;;;;;;;4.57;2.05;;;;;;;;;;5079764;28;20025;-66
2023/07/23 01:22:52;;;;;;;2.92;2.10;;;;;;;;;;5057370;28;20029;-66
2023/07/23 01:25:18;;;;;;;4.60;2.08;;;;;;;;;;5066288;28;20555;-66
2023/07/23 01:27:44;;;;;;;5.13;1.98;;;;;;;;;;5067978;28;20040;-66
2023/07/23 01:30:11;;;;;;;4.70;2.20;;;;;;;;;;5060913;28;20032;-66
2023/07/23 01:32:37;;;;;;;2.38;1.90;;;;;;;;;;5064984;28;20029;-67
2023/07/23 01:35:08;;;;;;;2.70;1.77;;;;;;;;;;5056007;28;20471;-67
2023/07/23 01:37:34;;;;;;;2.95;1.70;;;;;;;;;;5062715;28;20396;-67
2023/07/23 01:40:00;;;;;;;3.80;1.75;;;;;;;;;;5060537;28;20033;-67
2023/07/23 01:42:26;;;;;;;4.55;1.95;;;;;;;;;;5056936;28;20602;-67
2023/07/23 01:44:52;;;;;;;2.90;2.10;;;;;;;;;;5071449;28;20059;-67
2023/07/23 01:47:18;;;;;;;2.50;1.85;;;;;;;;;;5062374;28;20174;-66
2023/07/23 01:49:45;;;;;;;3.38;1.90;;;;;;;;;;5061228;28;20028;-67
2023/07/23 01:52:11;;;;;;;2.70;2.42;;;;;;;;;;5062913;28;20029;-67
2023/07/23 01:54:37;;;;;;;2.50;1.83;;;;;;;;;;5060264;28;20031;-67
2023/07/23 01:57:03;;;;;;;2.42;1.88;;;;;;;;;;5061316;28;20032;-67
2023/07/23 01:59:29;;;;;;;2.13;1.92;;;;;;;;;;5053516;28;20032;-67
2023/07/23 02:01:55;;;;;;;2.92;1.80;;;;;;;;;;5060553;28;20025;-67
2023/07/23 02:04:21;;;;;;;2.17;1.63;;;;;;;;;;5061447;28;20488;-67
2023/07/23 02:06:48;;;;;;;2.45;2.03;;;;;;;;;;5066450;28;20033;-67
2023/07/23 02:09:14;;;;;;;3.28;1.38;;;;;;;;;;5050270;28;20043;-67
2023/07/23 02:11:40;;;;;;;2.00;1.80;;;;;;;;;;5071320;28;20059;-67
2023/07/23 02:14:06;;;;;;;1.48;1.38;;;;;;;;;;5062646;28;20060;-67
2023/07/23 02:16:32;;;;;;;2.25;1.70;;;;;;;;;;5053504;28;20447;-68
2023/07/23 02:18:58;;;;;;;2.85;1.55;;;;;;;;;;5058782;28;20078;-68
2023/07/23 02:21:25;;;;;;;2.00;1.80;;;;;;;;;;5068860;28;20025;-67
2023/07/23 02:23:51;;;;;;;1.60;1.50;;;;;;;;;;5063975;28;20073;-68
2023/07/23 02:26:17;;;;;;;3.35;2.03;;;;;;;;;;5058169;28;20032;-67
2023/07/23 02:28:43;;;;;;;2.20;2.00;;;;;;;;;;5062618;28;20039;-68
2023/07/23 02:31:10;;;;;;;1.70;1.60;;;;;;;;;;5061101;28;20388;-68
2023/07/23 02:33:36;;;;;;;3.67;1.92;;;;;;;;;;5058666;28;20072;-67
2023/07/23 02:36:03;;;;;;;4.15;1.70;;;;;;;;;;5064833;28;20021;-67
2023/07/23 02:38:29;;;;;;;4.22;1.60;;;;;;;;;;5058285;28;20283;-67
2023/07/23 02:40:58;;;;;;;2.42;1.55;;;;;;;;;;5060925;28;20028;-68
2023/07/23 02:43:25;;;;;;;1.90;1.70;;;;;;;;;;5065235;28;20507;-67
2023/07/23 02:45:51;;;;;;;3.20;1.85;;;;;;;;;;5063527;28;20028;-67
2023/07/23 02:48:17;;;;;;;1.70;1.60;;;;;;;;;;5063428;28;20074;-67
2023/07/23 02:50:43;;;;;;;1.70;1.60;;;;;;;;;;5051792;28;20123;-67
2023/07/23 02:53:10;;;;;;;2.90;1.80;;;;;;;;;;5080208;28;20032;-68
2023/07/23 02:55:36;;;;;;;2.25;1.70;;;;;;;;;;5063021;28;20032;-68
2023/07/23 02:58:04;;;;;;;2.10;1.73;;;;;;;;;;5068905;28;20013;-67
2023/07/23 03:00:33;;;;;;;2.00;1.80;;;;;;;;;;5080195;28;20111;-67
2023/07/23 03:02:59;;;;;;;1.95;1.75;;;;;;;;;;5081561;28;20028;-68
2023/07/23 03:05:25;;;;;;;1.80;1.40;;;;;;;;;;5066140;28;20033;-67
2023/07/23 03:07:54;;;;;;;1.60;1.50;;;;;;;;;;5068477;28;20024;-67
2023/07/23 03:10:21;;;;;;;1.70;1.60;;;;;;;;;;5060396;28;20028;-66
2023/07/23 03:12:47;;;;;;;3.00;1.50;;;;;;;;;;5069321;28;20351;-67
2023/07/23 03:15:13;;;;;;;1.50;1.40;;;;;;;;;;5060687;28;20298;-67
2023/07/23 03:17:39;;;;;;;1.50;1.40;;;;;;;;;;5064654;28;20063;-67
2023/07/23 03:20:06;;;;;;;1.83;1.73;;;;;;;;;;5071016;28;20016;-67
2023/07/23 03:22:32;;;;;;;3.47;1.58;;;;;;;;;;5064245;28;20025;-67
2023/07/23 03:24:58;;;;;;;2.72;1.58;;;;;;;;;;5068068;28;20081;-67
2023/07/23 03:27:25;;;;;;;2.10;1.60;;;;;;;;;;5062347;28;20060;-66
2023/07/23 03:29:51;;;;;;;1.83;1.30;;;;;;;;;;5069383;28;20044;-67
2023/07/23 03:32:17;;;;;;;1.60;1.50;;;;;;;;;;5068441;28;20024;-67
2023/07/23 03:34:43;;;;;;;1.55;1.40;;;;;;;;;;5067371;28;20102;-67
2023/07/23 03:37:09;;;;;;;2.88;2.08;;;;;;;;;;5059119;28;20074;-67
2023/07/23 03:39:35;;;;;;;1.55;1.40;;;;;;;;;;5063597;28;20085;-67
2023/07/23 03:42:02;;;;;;;1.52;1.42;;;;;;;;;;5062904;28;20032;-67
2023/07/23 03:44:29;;;;;;;2.17;1.30;;;;;;;;;;5063253;28;20139;-67
2023/07/23 03:47:04;;;;;;;2.58;1.20;;;;;;;;;;5065608;28;20405;-67
2023/07/23 03:49:30;;;;;;;1.48;1.38;;;;;;;;;;5060432;28;20028;-68
2023/07/23 03:51:56;;;;;;;1.77;1.48;;;;;;;;;;5066808;28;20020;-67
2023/07/23 03:54:22;;;;;;;1.27;1.20;;;;;;;;;;5065900;28;20081;-67
2023/07/23 03:56:48;;;;;;;1.50;1.33;;;;;;;;;;5058388;28;20115;-68
2023/07/23 03:59:14;;;;;;;1.20;1.20;;;;;;;;;;5060976;28;20029;-67
2023/07/23 04:01:44;;;;;;;2.15;1.40;;;;;;;;;;5065275;28;20021;-68
2023/07/23 04:04:10;;;;;;;1.50;1.40;;;;;;;;;;5057918;28;20032;-67
2023/07/23 04:06:36;;;;;;;1.80;1.25;;;;;;;;;;5060449;28;20040;-67
2023/07/23 04:09:02;;;;;;;1.30;1.20;;;;;;;;;;5065790;28;20020;-66
2023/07/23 04:11:28;;;;;;;1.65;1.55;;;;;;;;;;5058681;28;20032;-67
2023/07/23 04:13:54;;;;;;;1.67;1.35;;;;;;;;;;5056409;28;20376;-67
2023/07/23 04:16:20;;;;;;;1.50;1.30;;;;;;;;;;5062905;28;20025;-68
2023/07/23 04:18:51;;;;;;;1.90;1.20;;;;;;;;;;5062101;28;20028;-68
2023/07/23 04:21:23;;;;;;;1.15;1.15;;;;;;;;;;5055293;28;20024;-67
2023/07/23 04:23:50;;;;;;;1.10;1.10;;;;;;;;;;5054672;28;20120;-67
2023/07/23 04:26:17;;;;;;;1.27;1.20;;;;;;;;;;5057003;28;20029;-68
2023/07/23 04:28:44;;;;;;;1.50;1.23;;;;;;;;;;5059258;28;20496;-67
2023/07/23 04:31:10;;;;;;;2.67;1.13;;;;;;;;;;5061905;28;20029;-67
2023/07/23 04:33:36;;;;;;;0.88;0.88;;;;;;;;;;5069481;28;20044;-67
2023/07/23 04:36:07;;;;;;;2.45;1.23;;;;;;;;;;5062084;28;20404;-67
2023/07/23 04:38:33;;;;;;;0.90;0.90;;;;;;;;;;5064016;28;20024;-67
2023/07/23 04:41:00;;;;;;;1.60;1.10;;;;;;;;;;5058018;28;20448;-67
2023/07/23 04:43:26;;;;;;;1.25;1.08;;;;;;;;;;5074397;28;20061;-67
2023/07/23 04:45:52;;;;;;;1.20;1.10;;;;;;;;;;5063532;28;20849;-68
2023/07/23 04:48:18;;;;;;;1.00;1.00;;;;;;;;;;5059138;28;20082;-67
2023/07/23 04:50:44;;;;;;;1.10;1.10;;;;;;;;;;5063112;28;20036;-67
2023/07/23 04:53:10;;;;;;;1.73;1.17;;;;;;;;;;5068820;28;20028;-68
2023/07/23 04:55:37;;;;;;;1.10;1.10;;;;;;;;;;5060219;28;20100;-68
2023/07/23 04:58:03;;;;;;;1.58;1.10;;;;;;;;;;5060067;28;20038;-67
2023/07/23 05:00:29;;;;;;;0.90;0.90;;;;;;;;;;5060562;28;20059;-67
2023/07/23 05:02:55;;;;;;;1.23;0.90;;;;;;;;;;5068338;28;20378;-68
2023/07/23 05:05:21;;;;;;;0.90;0.90;;;;;;;;;;5053846;28;20074;-68
2023/07/23 05:07:47;;;;;;;1.05;1.05;;;;;;;;;;5056708;28;20028;-68
2023/07/23 05:10:13;;;;;;;1.10;1.08;;;;;;;;;;5056185;28;20457;-68
2023/07/23 05:12:39;;;;;;;1.13;1.10;;;;;;;;;;5061263;28;20050;-67
2023/07/23 05:15:13;;;;;;;1.63;1.52;;;;;;;;;;5061184;28;20423;-68
2023/07/23 05:17:39;;;;;;;2.42;1.10;;;;;;;;;;5061660;28;20027;-67
2023/07/23 05:20:06;;;;;;;0.90;0.90;;;;;;;;;;5058248;28;20021;-68
2023/07/23 05:22:41;;;;;;;2.85;1.27;;;;;;;;;;5072405;28;20165;-67
2023/07/23 05:25:08;;;;;;;;;;;;;;;;;;5056823;28;20054;-67
2023/07/23 05:27:34;;;;;;;1.55;1.45;;;;;;;;;;5071845;28;20537;-67
2023/07/23 05:30:00;;;;;;;1.50;1.45;;;;;;;;;;5052111;28;20127;-67
2023/07/23 05:32:26;;;;;;;0.90;0.90;;;;;;;;;;5055533;28;20029;-67
2023/07/23 05:34:53;;;;;;;1.13;1.10;;;;;;;;;;5057892;28;20064;-67
2023/07/23 05:37:20;;;;;;;0.85;0.85;;;;;;;;;;5065995;28;20480;-68
2023/07/23 05:39:46;;;;;;;1.05;1.05;;;;;;;;;;5056509;28;20052;-67
2023/07/23 05:42:12;;;;;;;0.85;0.85;;;;;;;;;;5055751;28;20032;-67
2023/07/23 05:44:38;;;;;;;1.10;1.10;;;;;;;;;;5061968;28;20054;-68
2023/07/23 05:47:04;;;;;;;1.23;1.10;;;;;;;;;;5058552;28;20321;-67
2023/07/23 05:49:30;;;;;;;1.23;1.17;;;;;;;;;;5047112;28;20136;-67
2023/07/23 05:51:59;;;;;;;1.45;0.98;;;;;;;;;;5054453;28;20434;-67
2023/07/23 05:54:26;;;;;;;1.10;1.10;;;;;;;;;;5055779;28;20021;-68
2023/07/23 05:56:52;;;;;;;1.88;1.08;;;;;;;;;;5061888;28;20107;-68
2023/07/23 05:59:18;;;;;;;4.50;1.58;;;;;;;;;;5059243;28;20021;-68
2023/07/23 06:01:44;;;;;;;0.80;0.80;;;;;;;;;;5054261;28;20042;-68
2023/07/23 06:04:10;;;;;;;1.38;1.27;;;;;;;;;;5056312;28;20050;-68
2023/07/23 06:06:36;;;;;;;1.88;1.20;;;;;;;;;;5050454;28;20078;-70
2023/07/23 06:09:06;;;;;;;1.00;1.00;;;;;;;;;;5060051;28;20029;-68
2023/07/23 06:11:32;;;;;;;0.88;0.88;;;;;;;;;;5058517;28;20021;-68
2023/07/23 06:13:58;;;;;;;1.30;0.95;;;;;;;;;;5052009;28;20024;-68
2023/07/23 06:16:24;;;;;;;1.08;0.95;;;;;;;;;;5052353;28;20021;-68
2023/07/23 06:18:51;;;;;;;1.20;1.20;;;;;;;;;;5056153;28;20029;-67
2023/07/23 06:21:17;;;;;;;1.08;0.95;;;;;;;;;;5057715;28;20730;-68
2023/07/23 06:23:43;;;;;;;1.08;1.08;;;;;;;;;;5069462;28;20102;-68
2023/07/23 06:26:09;;;;;;;3.67;1.20;;;;;;;;;;5060609;28;20032;-67
2023/07/23 06:28:35;;;;;;;1.30;1.20;;;;;;;;;;5057173;28;20129;-68
2023/07/23 06:31:01;;;;;;;0.82;0.82;;;;;;;;;;5055241;28;20032;-69
2023/07/23 06:33:27;;;;;;;1.10;1.10;;;;;;;;;;5063788;28;20125;-68
2023/07/23 06:35:55;;;;;;;1.05;1.02;;;;;;;;;;5061157;28;20441;-68
2023/07/23 06:38:21;;;;;;;1.20;1.20;;;;;;;;;;5068324;28;20537;-68
2023/07/23 06:40:51;;;;;;;1.17;1.10;;;;;;;;;;5055373;28;20020;-68
2023/07/23 06:43:17;;;;;;;1.10;1.00;;;;;;;;;;5065822;28;20025;-68
2023/07/23 06:45:43;;;;;;;1.85;1.20;;;;;;;;;;5057124;28;20104;-68
2023/07/23 06:48:10;;;;;;;1.00;1.00;;;;;;;;;;5061002;28;20028;-68
2023/07/23 06:50:36;;;;;;;1.77;1.10;;;;;;;;;;5061819;28;20071;-67
2023/07/23 06:53:03;;;;;;;1.00;1.00;;;;;;;;;;5049860;28;20784;-68
2023/07/23 06:55:29;;;;;;;1.35;1.17;;;;;;;;;;5052610;28;20029;-68
2023/07/23 06:57:55;;;;;;;1.08;1.08;;;;;;;;;;5066826;28;20032;-68
2023/07/23 07:00:21;;;;;;;1.10;1.10;;;;;;;;;;5062219;28;20142;-68
2023/07/23 07:02:47;;;;;;;1.00;1.00;;;;;;;;;;5063819;28;20063;-67
2023/07/23 07:05:13;;;;;;;1.30;1.20;;;;;;;;;;5051498;28;20040;-67
2023/07/23 07:07:39;;;;;;;1.10;1.00;;;;;;;;;;5057219;28;20033;-68
2023/07/23 07:10:06;;;;;;;1.30;1.30;;;;;;;;;;5058433;28;20036;-69
2023/07/23 07:12:32;;;;;;;1.38;1.38;;;;;;;;;;5051533;28;20033;-68
2023/07/23 07:14:58;;;;;;;1.40;1.30;;;;;;;;;;5052510;28;20028;-68
2023/07/23 07:17:24;;;;;;;1.08;1.08;;;;;;;;;;5057604;28;20067;-68
2023/07/23 07:19:50;;;;;;;1.00;1.00;;;;;;;;;;5048317;28;20535;-68
2023/07/23 07:22:17;;;;;;;1.20;1.20;;;;;;;;;;5050594;28;20729;-68
2023/07/23 07:24:43;;;;;;;1.10;1.10;;;;;;;;;;5056636;28;20384;-68
2023/07/23 07:27:10;;;;;;;1.38;1.27;;;;;;;;;;5054504;28;20063;-68
2023/07/23 07:29:39;;;;;;;1.00;1.00;;;;;;;;;;5053697;28;20095;-68
2023/07/23 07:32:06;;;;;;;1.20;1.20;;;;;;;;;;5052919;28;20044;-67
2023/07/23 07:34:32;;;;;;;1.48;1.38;;;;;;;;;;5051337;28;20823;-68
2023/07/23 07:36:59;;;;;;;1.27;1.15;;;;;;;;;;5052096;28;20025;-67
2023/07/23 07:39:25;;;;;;;2.13;1.20;;;;;;;;;;5064838;28;20029;-68
2023/07/23 07:41:53;;;;;;;1.92;1.30;;;;;;;;;;5050593;28;20390;-67
2023/07/23 07:44:19;;;;;;;1.17;1.17;;;;;;;;;;5061712;28;20028;-67
2023/07/23 07:46:45;;;;;;;1.35;1.25;;;;;;;;;;5053502;28;20271;-70
2023/07/23 07:49:12;;;;;;;2.95;1.60;;;;;;;;;;5056749;28;20035;-67
2023/07/23 07:51:43;;;;;;;1.50;1.40;;;;;;;;;;5058703;28;20028;-67
2023/07/23 07:54:09;;;;;;;1.80;1.38;;;;;;;;;;5051440;28;20711;-67
2023/07/23 07:56:35;;;;;;;1.50;1.40;;;;;;;;;;5046099;28;20029;-67
2023/07/23 07:59:02;;;;;;;1.80;1.70;;;;;;;;;;5057322;28;20138;-67
2023/07/23 08:01:29;;;;;;;2.53;1.60;;;;;;;;;;5057256;28;20032;-67
2023/07/23 08:03:55;;;;;;;2.08;1.70;;;;;;;;;;5066309;28;20032;-67
2023/07/23 08:06:24;;;;;;;2.35;1.90;;;;;;;;;;5057711;28;20475;-66
2023/07/23 08:08:50;;;;;;;2.35;1.67;;;;;;;;;;5058695;28;20027;-66
2023/07/23 08:11:17;;;;;;;2.40;1.90;;;;;;;;;;5075628;28;20020;-66
2023/07/23 08:13:43;;;;;;;2.28;1.90;;;;;;;;;;5059882;28;20372;-67
2023/07/23 08:16:12;;;;;;;5.10;2.22;;;;;;;;;;5049300;28;20047;-67
2023/07/23 08:18:38;;;;;;;3.03;2.47;;;;;;;;;;5040067;28;20167;-67
2023/07/23 08:21:05;;;;;;;2.90;2.17;;;;;;;;;;5052889;28;20032;-67
2023/07/23 08:23:31;;;;;;;2.45;1.98;;;;;;;;;;5047869;28;20467;-67
2023/07/23 08:25:58;;;;;;;3.17;2.60;;;;;;;;;;5049159;28;20560;-67
2023/07/23 08:28:31;;;;;;;2.78;2.28;;;;;;;;;;5053340;28;20032;-66
2023/07/23 08:30:57;;;;;;;1.40;1.30;;;;;;;;;;5048016;28;20032;-73
2023/07/23 08:33:26;;;;;;;1.45;1.10;;;;;;;;;;5055324;28;20049;-71
2023/07/23 08:35:53;;;;;;;1.00;1.00;;;;;;;;;;5048660;28;20504;-71
2023/07/23 08:38:19;;;;;;;1.17;1.08;;;;;;;;;;5049244;28;20153;-72
2023/07/23 08:40:45;;;;;;;2.28;1.10;;;;;;;;;;5044313;28;20028;-73
2023/07/23 08:43:23;;;;;;;1.33;1.30;;;;;;;;;;5047268;28;20032;-73
2023/07/23 08:45:58;;;;;;;1.10;1.00;;;;;;;;;;5046993;28;20029;-73
2023/07/23 08:48:32;;;;;;;2.20;1.38;;;;;;;;;;5055764;28;20068;-75
2023/07/23 08:50:58;;;;;;;1.50;1.30;;;;;;;;;;5051821;28;20028;-75
2023/07/23 08:53:25;;;;;;;1.42;1.30;;;;;;;;;;5055994;28;20283;-75
2023/07/23 08:55:51;;;;;;;2.58;1.00;;;;;;;;;;5050994;28;20128;-75
2023/07/23 08:58:18;;;;;;;1.00;1.00;;;;;;;;;;5063161;28;20391;-75
2023/07/23 09:00:45;;;;;;;1.00;1.00;;;;;;;;;;5052034;28;20032;-75
2023/07/23 09:03:12;;;;;;;1.08;1.08;;;;;;;;;;5049103;28;20500;-75
2023/07/23 09:05:39;;;;;;;0.85;0.85;;;;;;;;;;5056107;28;20395;-75
2023/07/23 09:08:06;;;;;;;1.00;1.00;;;;;;;;;;5069755;28;20783;-75
2023/07/23 09:10:32;;;;;;;1.65;1.00;;;;;;;;;;5074125;28;20113;-75
2023/07/23 09:12:58;;;;;;;1.10;0.90;;;;;;;;;;5074539;28;20024;-74
2023/07/23 09:15:24;;;;;;;0.95;0.95;;;;;;;;;;5052145;28;20032;-75
2023/07/23 09:17:51;;;;;;;1.10;1.10;;;;;;;;;;5067620;28;20387;-75
2023/07/23 09:20:18;;;;;;;2.78;1.20;;;;;;;;;;5047932;28;20024;-74
2023/07/23 09:22:44;;;;;;;1.77;1.10;;;;;;;;;;5057039;28;20032;-75
2023/07/23 09:25:10;;;;;;;2.83;1.08;;;;;;;;;;5047627;28;20671;-75
2023/07/23 09:27:37;;;;;;;0.90;0.90;;;;;;;;;;5049107;28;20417;-72
2023/07/23 09:30:04;;;;;;;0.95;0.90;;;;;;;;;;5052715;28;20052;-73
2023/07/23 09:32:30;;;;;;;1.15;1.10;;;;;;;;;;5056083;28;20996;-73
2023/07/23 09:34:58;;;;;;;1.60;1.10;;;;;;;;;;5063963;28;20414;-71
2023/07/23 09:37:30;;;;;;;1.38;1.27;;;;;;;;;;5054272;28;20059;-70
2023/07/23 09:39:59;;;;;;;0.98;0.98;;;;;;;;;;5053316;28;20021;-71
2023/07/23 09:42:28;;;;;;;0.90;0.90;;;;;;;;;;5050794;28;20020;-71
2023/07/23 09:45:00;;;;;;;0.90;0.90;;;;;;;;;;5042316;28;20067;-71
2023/07/23 09:47:30;;;;;;;1.30;1.20;;;;;;;;;;5068053;28;20037;-70
2023/07/23 09:49:57;;;;;;;1.08;1.08;;;;;;;;;;5044783;28;20082;-70
2023/07/23 09:52:23;;;;;;;1.60;1.08;;;;;;;;;;5045150;28;20036;-71
2023/07/23 09:54:52;;;;;;;1.50;1.40;;;;;;;;;;5053822;28;20081;-71
2023/07/23 09:57:20;;;;;;;1.58;1.25;;;;;;;;;;5043236;28;20101;-70
2023/07/23 09:59:46;;;;;;;2.25;1.10;;;;;;;;;;5046934;28;20036;-70
2023/07/23 10:02:15;;;;;;;2.33;1.20;;;;;;;;;;5062144;28;20713;-70
2023/07/23 10:04:41;;;;;;;1.58;1.48;;;;;;;;;;5049722;28;20021;-71
2023/07/23 10:07:08;;;;;;;1.98;1.48;;;;;;;;;;5044170;28;20123;-70
2023/07/23 10:09:34;;;;;;;1.05;0.95;;;;;;;;;;5045472;28;20411;-71
2023/07/23 10:12:00;;;;;;;1.17;1.10;;;;;;;;;;5043509;28;20029;-71
2023/07/23 10:14:26;;;;;;;0.90;0.90;;;;;;;;;;5044064;28;20969;-71
2023/07/23 10:16:55;;;;;;;2.97;0.95;;;;;;;;;;5044595;28;20020;-71
2023/07/23 10:19:21;;;;;;;2.58;1.20;;;;;;;;;;5053095;28;20043;-70
2023/07/23 10:21:50;;;;;;;1.38;1.20;;;;;;;;;;5050104;28;20574;-70
2023/07/23 10:24:16;;;;;;;3.38;1.40;;;;;;;;;;5050939;28;20036;-70
2023/07/23 10:26:46;;;;;;;3.40;1.45;;;;;;;;;;5052431;28;20032;-70
2023/07/23 10:29:14;;;;;;;1.50;1.40;;;;;;;;;;5047752;28;20214;-70
2023/07/23 10:31:41;;;;;;;1.73;1.20;;;;;;;;;;5048254;28;20060;-70
2023/07/23 10:34:22;;;;;;;2.70;1.50;;;;;;;;;;5063630;28;20051;-70
2023/07/23 10:37:07;;;;;;;1.52;1.42;;;;;;;;;;5060083;28;20519;-70
2023/07/23 10:39:40;;;;;;;1.17;1.15;;;;;;;;;;5044499;28;20029;-74
2023/07/23 10:42:07;;;;;;;1.70;1.23;;;;;;;;;;5050403;28;20480;-75
2023/07/23 10:44:33;;;;;;;1.63;1.10;;;;;;;;;;5051831;28;20044;-75
2023/07/23 10:47:02;;;;;;;4.32;1.33;;;;;;;;;;5047916;28;20032;-74
2023/07/23 10:49:30;;;;;;;2.13;1.40;;;;;;;;;;5043351;28;20044;-74
2023/07/23 10:52:17;;;;;;;1.45;1.20;;;;;;;;;;5054479;28;20032;-73
2023/07/23 10:54:43;;;;;;;1.27;1.23;;;;;;;;;;5052821;28;20033;-75
2023/07/23 10:57:23;;;;;;;0.95;0.95;;;;;;;;;;5051930;28;20044;-74
2023/07/23 10:59:53;;;;;;;2.78;1.40;;;;;;;;;;5055038;28;20039;-76
2023/07/23 11:02:25;;;;;;;1.13;1.02;;;;;;;;;;5050141;28;20024;-75
2023/07/23 11:04:51;;;;;;;3.17;1.50;;;;;;;;;;5044736;28;20035;-75
2023/07/23 11:07:26;;;;;;;1.38;1.20;;;;;;;;;;5045938;28;20039;-75
2023/07/23 11:09:54;;;;;;;2.88;1.27;;;;;;;;;;5050525;28;20070;-76
2023/07/23 11:12:22;;;;;;;1.90;1.80;;;;;;;;;;5053713;28;20056;-75
2023/07/23 11:14:48;;;;;;;2.10;1.40;;;;;;;;;;5055083;28;20491;-76
2023/07/23 11:17:14;;;;;;;2.05;1.40;;;;;;;;;;5049439;28;20139;-76
2023/07/23 11:19:46;;;;;;;2.80;1.60;;;;;;;;;;5049001;28;20043;-76
2023/07/23 11:22:13;;;;;;;2.10;1.27;;;;;;;;;;5062677;28;20029;-75
2023/07/23 11:24:39;;;;;;;1.13;1.02;;;;;;;;;;5058136;28;20033;-76
2023/07/23 11:27:05;;;;;;;3.08;1.25;;;;;;;;;;5071337;28;20047;-76
2023/07/23 11:29:31;;;;;;;1.00;1.00;;;;;;;;;;5052397;28;20044;-75
2023/07/23 11:31:58;;;;;;;1.30;1.20;;;;;;;;;;5055480;28;20029;-76
2023/07/23 11:34:25;;;;;;;1.55;1.20;;;;;;;;;;5055461;28;20135;-76
2023/07/23 11:36:55;;;;;;;1.45;1.35;;;;;;;;;;5070644;28;20719;-76
2023/07/23 11:39:24;;;;;;;1.17;1.17;;;;;;;;;;5053428;28;20567;-75
2023/07/23 11:41:52;;;;;;;1.00;1.00;;;;;;;;;;5056965;28;20055;-75
2023/07/23 11:44:18;;;;;;;2.15;1.13;;;;;;;;;;5057849;28;20055;-75
2023/07/23 11:46:45;;;;;;;1.52;1.42;;;;;;;;;;5058518;28;20498;-76
2023/07/23 11:49:12;;;;;;;1.20;1.15;;;;;;;;;;5059405;28;20062;-75
2023/07/23 11:51:38;;;;;;;1.00;1.00;;;;;;;;;;5053696;28;20028;-75
2023/07/23 11:54:07;;;;;;;1.65;1.30;;;;;;;;;;5053774;28;20036;-76
2023/07/23 11:56:38;;;;;;;1.35;1.20;;;;;;;;;;5064525;28;20021;-76
2023/07/23 11:59:05;;;;;;;1.35;1.17;;;;;;;;;;5049724;28;20032;-75
2023/07/23 12:01:31;;;;;;;1.23;1.15;;;;;;;;;;5047967;28;20017;-74
2023/07/23 12:04:02;;;;;;;1.30;1.20;;;;;;;;;;5045329;28;21021;-75
2023/07/23 12:06:29;;;;;;;1.30;1.30;;;;;;;;;;5066412;28;20767;-79
2023/07/23 12:08:56;;;;;;;1.10;1.10;;;;;;;;;;5051063;28;20463;-73
2023/07/23 12:11:23;;;;;;;1.33;1.23;;;;;;;;;;5054410;28;20111;-74
2023/07/23 12:13:53;;;;;;;1.20;1.10;;;;;;;;;;5054452;28;20035;-74
2023/07/23 12:16:36;;;;;;;1.25;1.15;;;;;;;;;;5050351;28;20648;-73
2023/07/23 12:19:03;;;;;;;1.90;1.40;;;;;;;;;;5055328;28;20032;-75
2023/07/23 12:21:30;;;;;;;2.40;1.42;;;;;;;;;;5053771;28;20025;-73
2023/07/23 12:23:56;;;;;;;2.10;1.50;;;;;;;;;;5061327;28;20063;-74
2023/07/23 12:26:22;;;;;;;2.38;1.40;;;;;;;;;;5051950;28;20461;-73
2023/07/23 12:28:48;;;;;;;3.10;1.50;;;;;;;;;;5048051;28;20545;-74
2023/07/23 12:31:14;;;;;;;2.00;1.38;;;;;;;;;;5046119;28;20040;-74
2023/07/23 12:33:40;;;;;;;1.40;1.30;;;;;;;;;;5070664;28;20052;-71
2023/07/23 12:36:07;;;;;;;1.30;1.30;;;;;;;;;;5058910;28;20036;-71
2023/07/23 12:38:33;;;;;;;1.50;1.40;;;;;;;;;;5059698;28;20114;-71
2023/07/23 12:40:59;;;;;;;1.52;1.42;;;;;;;;;;5061363;28;20060;-71
2023/07/23 12:43:25;;;;;;;2.75;1.60;;;;;;;;;;5058261;28;20141;-72
2023/07/23 12:45:51;;;;;;;1.42;1.33;;;;;;;;;;5058009;28;20033;-71
2023/07/23 12:48:17;;;;;;;1.40;1.40;;;;;;;;;;5062316;28;20032;-71
2023/07/23 12:50:43;;;;;;;1.65;1.45;;;;;;;;;;5059282;28;20537;-71
2023/07/23 12:53:09;;;;;;;1.30;1.23;;;;;;;;;;5060801;28;21321;-71
2023/07/23 12:55:36;;;;;;;4.13;1.55;;;;;;;;;;5061061;28;20052;-71
2023/07/23 12:58:02;;;;;;;2.00;1.65;;;;;;;;;;5062134;28;20476;-72
2023/07/23 13:00:28;;;;;;;1.83;1.35;;;;;;;;;;5072532;28;20028;-72
2023/07/23 13:02:54;;;;;;;1.42;1.33;;;;;;;;;;5055104;28;20071;-72
2023/07/23 13:05:22;;;;;;;1.55;1.45;;;;;;;;;;5060546;28;20103;-72
2023/07/23 13:07:48;;;;;;;2.35;1.70;;;;;;;;;;5066201;28;20025;-70
2023/07/23 13:10:14;;;;;;;2.95;1.70;;;;;;;;;;5057601;28;20376;-72
2023/07/23 13:12:40;;;;;;;2.13;1.63;;;;;;;;;;5055426;28;20054;-71
2023/07/23 13:15:06;;;;;;;1.88;1.48;;;;;;;;;;5056853;28;20089;-70
2023/07/23 13:17:32;;;;;;;1.60;1.50;;;;;;;;;;5052731;28;20075;-71
2023/07/23 13:19:58;;;;;;;1.95;1.40;;;;;;;;;;5057238;28;20020;-70
2023/07/23 13:22:24;;;;;;;2.22;1.77;;;;;;;;;;5052121;28;20033;-73
2023/07/23 13:24:51;;;;;;;2.45;1.58;;;;;;;;;;5056779;28;20039;-72
2023/07/23 13:27:17;;;;;;;2.88;1.80;;;;;;;;;;5060791;28;20032;-73
2023/07/23 13:29:43;;;;;;;3.75;2.00;;;;;;;;;;5055679;28;20483;-74
2023/07/23 13:32:09;;;;;;;1.70;1.60;;;;;;;;;;5058585;28;20067;-72
2023/07/23 13:34:38;;;;;;;2.90;1.73;;;;;;;;;;5052586;28;20400;-71
2023/07/23 13:37:04;;;;;;;3.70;2.10;;;;;;;;;;5055041;28;20667;-71
2023/07/23 13:39:31;;;;;;;4.82;1.92;;;;;;;;;;5056951;28;20036;-71
2023/07/23 13:41:57;;;;;;;2.40;1.77;;;;;;;;;;5056955;28;20044;-72
2023/07/23 13:44:23;;;;;;;2.85;1.85;;;;;;;;;;5057876;28;20325;-75
2023/07/23 13:46:49;;;;;;;5.57;1.92;;;;;;;;;;5054162;28;20032;-72
2023/07/23 13:49:15;;;;;;;4.38;2.03;;;;;;;;;;5054409;28;20499;-72
2023/07/23 13:51:41;;;;;;;5.93;1.98;;;;;;;;;;5057363;28;20028;-74
2023/07/23 13:54:07;;;;;;;4.22;2.30;;;;;;;;;;5058060;28;20476;-72
2023/07/23 13:56:34;;;;;;;3.60;2.13;;;;;;;;;;5051664;28;20033;-72
2023/07/23 13:59:00;;;;;;;2.45;1.90;;;;;;;;;;5052878;28;20032;-71
2023/07/23 14:01:26;;;;;;;3.92;2.45;;;;;;;;;;5057096;28;20644;-71
2023/07/23 14:03:52;;;;;;;3.22;1.88;;;;;;;;;;5045906;28;20024;-72
2023/07/23 14:06:21;;;;;;;2.67;1.90;;;;;;;;;;5043906;28;20412;-72
2023/07/23 14:08:47;;;;;;;5.57;2.28;;;;;;;;;;5057514;28;20365;-71
2023/07/23 14:11:13;;;;;;;3.25;1.92;;;;;;;;;;5054588;28;20032;-72
2023/07/23 14:13:42;;;;;;;7.38;2.10;;;;;;;;;;5056723;28;20032;-72
2023/07/23 14:16:08;;;;;;;3.95;1.85;;;;;;;;;;5049567;28;20542;-69
2023/07/23 14:18:34;;;;;;;4.45;2.50;;;;;;;;;;5040929;28;20029;-72
2023/07/23 14:21:00;;;;;;;3.97;2.25;;;;;;;;;;5049322;28;20480;-71
2023/07/23 14:23:26;;;;;;;2.65;2.10;;;;;;;;;;5044393;28;20082;-72
2023/07/23 14:25:53;;;;;;;6.22;2.42;;;;;;;;;;5044565;28;20583;-73
2023/07/23 14:28:19;;;;;;;6.00;2.58;;;;;;;;;;5043517;28;20029;-76
2023/07/23 14:30:47;;;;;;;3.45;2.10;;;;;;;;;;5048348;28;20384;-74
2023/07/23 14:33:13;;;;;;;3.50;2.00;;;;;;;;;;5066408;28;20086;-73
2023/07/23 14:35:40;;;;;;;5.38;2.25;;;;;;;;;;5051117;28;20901;-74
2023/07/23 14:38:06;;;;;;;4.85;2.40;;;;;;;;;;5056685;28;20032;-73
2023/07/23 14:40:32;;;;;;;3.03;2.00;;;;;;;;;;5045460;28;20524;-71